YM Initiative — A8HX4 — position and weather

sailwx.info

Track history (hours):
 
Tides and Currents Weather Stations Pressure Air Temp Water Temp Dewpoint Dewpoint Depression Visibility Wind Speed Wind Dir Waves Ship Positions

YM Initiative

Last reported at 2016-Aug-15 01:17 UTC. Time now 2016-Aug-25 09:44 UTC.
Position N 02°03' E 102°09'.
Warning: this ship's position is 10 days out of date.

Length 173 m; draft 7.7 m.

Type: Cargo ship. MMSI: 635961368.

Date/timePositionNaut miles runAvg speedWind from/ knotsBaromVisibWave heightAir tempDewpointWater temp
2016-Aug-15 01:17N 02°03' E 102°09'8 9.8
2016-Aug-15 00:25N 01°58' E 102°16'910.1
2016-Aug-14 23:33N 01°54' E 102°24'1010.5
2016-Aug-14 22:33N 01°50' E 102°33'1010.5
2016-Aug-14 21:33N 01°45' E 102°43'1111.1
2016-Aug-14 20:33N 01°40' E 102°53'5011.5
2016-Aug-14 16:13N 01°12' E 103°34'6 9.2
2016-Aug-14 15:34N 01°13' E 103°40'8 7.1
2016-Aug-14 14:28N 01°17' E 103°47'0 0.0
2016-Aug-14 13:28N 01°17' E 103°47'0 0.0
2016-Aug-14 12:28N 01°17' E 103°47'0 0.0
2016-Aug-14 11:31N 01°17' E 103°47'0 0.0
2016-Aug-14 10:28N 01°17' E 103°47'0 0.0
2016-Aug-14 09:31N 01°17' E 103°47'0 0.0
2016-Aug-14 08:25N 01°17' E 103°47'0 0.0
2016-Aug-14 07:22N 01°17' E 103°47'0 0.0
2016-Aug-14 06:25N 01°17' E 103°47'0 0.0
2016-Aug-14 04:31N 01°17' E 103°47'0 0.0
2016-Aug-14 03:28N 01°17' E 103°47'0 0.0
2016-Aug-14 02:28N 01°17' E 103°47'0 0.0
2016-Aug-14 01:31N 01°17' E 103°47'0 0.0
2016-Aug-14 00:31N 01°17' E 103°47'0 0.0
2016-Aug-13 23:31N 01°17' E 103°47'0 0.0
2016-Aug-13 22:28N 01°17' E 103°47'0 0.0
2016-Aug-13 21:28N 01°17' E 103°47'0 0.0
2016-Aug-13 20:28N 01°17' E 103°47'1 0.6
2016-Aug-13 19:33N 01°16' E 103°47'8 8.1
2016-Aug-13 18:32N 01°12' E 103°39'8113.4
2016-Aug-13 12:30N 01°48' E 102°27'4016.6
2016-Aug-13 10:04N 02°11' E 101°54'916.9
2016-Aug-13 09:32N 02°17' E 101°47'  
Track history (hours):
 
Tides and Currents Weather Stations Pressure Air Temp Water Temp Dewpoint Dewpoint Depression Visibility Wind Speed Wind Dir Waves Ship Positions

YM Initiative

Last reported at 2016-Aug-15 01:17 UTC. Time now 2016-Aug-25 09:44 UTC.
Position N 02°03' E 102°09'.
Warning: this ship's position is 10 days out of date.

Length 173 m; draft 7.7 m.

Type: Cargo ship. MMSI: 635961368.

Date/timePositionNaut miles runAvg speedWind from/ knotsBaromVisibWave heightAir tempDewpointWater temp
2016-Aug-15 01:17N 02°03' E 102°09'8 9.8
2016-Aug-15 00:25N 01°58' E 102°16'910.1
2016-Aug-14 23:33N 01°54' E 102°24'1010.5
2016-Aug-14 22:33N 01°50' E 102°33'1010.5
2016-Aug-14 21:33N 01°45' E 102°43'1111.1
2016-Aug-14 20:33N 01°40' E 102°53'5011.5
2016-Aug-14 16:13N 01°12' E 103°34'6 9.2
2016-Aug-14 15:34N 01°13' E 103°40'8 7.1
2016-Aug-14 14:28N 01°17' E 103°47'0 0.0
2016-Aug-14 13:28N 01°17' E 103°47'0 0.0
2016-Aug-14 12:28N 01°17' E 103°47'0 0.0
2016-Aug-14 11:31N 01°17' E 103°47'0 0.0
2016-Aug-14 10:28N 01°17' E 103°47'0 0.0
2016-Aug-14 09:31N 01°17' E 103°47'0 0.0
2016-Aug-14 08:25N 01°17' E 103°47'0 0.0
2016-Aug-14 07:22N 01°17' E 103°47'0 0.0
2016-Aug-14 06:25N 01°17' E 103°47'0 0.0
2016-Aug-14 04:31N 01°17' E 103°47'0 0.0
2016-Aug-14 03:28N 01°17' E 103°47'0 0.0
2016-Aug-14 02:28N 01°17' E 103°47'0 0.0
2016-Aug-14 01:31N 01°17' E 103°47'0 0.0
2016-Aug-14 00:31N 01°17' E 103°47'0 0.0
2016-Aug-13 23:31N 01°17' E 103°47'0 0.0
2016-Aug-13 22:28N 01°17' E 103°47'0 0.0
2016-Aug-13 21:28N 01°17' E 103°47'0 0.0
2016-Aug-13 20:28N 01°17' E 103°47'1 0.6
2016-Aug-13 19:33N 01°16' E 103°47'8 8.1
2016-Aug-13 18:32N 01°12' E 103°39'8113.4
2016-Aug-13 12:30N 01°48' E 102°27'4016.6
2016-Aug-13 10:04N 02°11' E 101°54'916.9
2016-Aug-13 09:32N 02°17' E 101°47'  

Dump ship's entire track history